sensor_id;sensor_type;location;lat;lon;timestamp;temperature;humidity
11284;DHT22;5698;47.332;11.180;2022-10-04T00:02:15;7.60;99.90
11284;DHT22;5698;47.332;11.180;2022-10-04T00:04:45;7.50;99.90
11284;DHT22;5698;47.332;11.180;2022-10-04T00:07:18;7.50;99.90
11284;DHT22;5698;47.332;11.180;2022-10-04T00:09:49;7.50;99.90
11284;DHT22;5698;47.332;11.180;2022-10-04T00:12:21;7.50;99.90
11284;DHT22;5698;47.332;11.180;2022-10-04T00:14:52;7.40;99.90
11284;DHT22;5698;47.332;11.180;2022-10-04T00:17:24;7.40;99.90
11284;DHT22;5698;47.332;11.180;2022-10-04T00:19:53;7.40;99.90
11284;DHT22;5698;47.332;11.180;2022-10-04T00:22:22;7.40;99.90
11284;DHT22;5698;47.332;11.180;2022-10-04T00:25:16;7.40;99.90
11284;DHT22;5698;47.332;11.180;2022-10-04T00:31:08;7.50;99.90
11284;DHT22;5698;47.332;11.180;2022-10-04T00:33:36;7.50;99.90
11284;DHT22;5698;47.332;11.180;2022-10-04T00:36:36;7.50;99.90
11284;DHT22;5698;47.332;11.180;2022-10-04T00:39:24;7.50;99.90
11284;DHT22;5698;47.332;11.180;2022-10-04T00:42:00;7.50;99.90
11284;DHT22;5698;47.332;11.180;2022-10-04T00:44:33;7.50;99.90
11284;DHT22;5698;47.332;11.180;2022-10-04T00:47:16;7.60;99.90
11284;DHT22;5698;47.332;11.180;2022-10-04T00:49:47;7.60;99.90
11284;DHT22;5698;47.332;11.180;2022-10-04T00:52:18;7.60;99.90
11284;DHT22;5698;47.332;11.180;2022-10-04T00:54:50;7.50;99.90
11284;DHT22;5698;47.332;11.180;2022-10-04T00:57:21;7.50;99.90
11284;DHT22;5698;47.332;11.180;2022-10-04T00:59:51;7.60;99.90
11284;DHT22;5698;47.332;11.180;2022-10-04T01:02:23;7.60;99.90
11284;DHT22;5698;47.332;11.180;2022-10-04T01:04:54;7.70;99.90
11284;DHT22;5698;47.332;11.180;2022-10-04T01:07:27;7.70;99.90
11284;DHT22;5698;47.332;11.180;2022-10-04T01:09:59;7.70;99.90
11284;DHT22;5698;47.332;11.180;2022-10-04T01:12:43;7.70;99.90
11284;DHT22;5698;47.332;11.180;2022-10-04T01:15:15;7.70;99.90
11284;DHT22;5698;47.332;11.180;2022-10-04T01:18:06;7.70;99.90
11284;DHT22;5698;47.332;11.180;2022-10-04T01:20:36;7.70;99.90
11284;DHT22;5698;47.332;11.180;2022-10-04T01:23:07;7.70;99.90
11284;DHT22;5698;47.332;11.180;2022-10-04T01:25:46;7.70;99.90
11284;DHT22;5698;47.332;11.180;2022-10-04T01:28:13;7.60;99.90
11284;DHT22;5698;47.332;11.180;2022-10-04T01:30:41;7.60;99.90
11284;DHT22;5698;47.332;11.180;2022-10-04T01:33:08;7.60;99.90
11284;DHT22;5698;47.332;11.180;2022-10-04T01:35:37;7.60;99.90
11284;DHT22;5698;47.332;11.180;2022-10-04T01:38:06;7.60;99.90
11284;DHT22;5698;47.332;11.180;2022-10-04T01:40:34;7.60;99.90
11284;DHT22;5698;47.332;11.180;2022-10-04T01:43:05;7.60;99.90
11284;DHT22;5698;47.332;11.180;2022-10-04T01:45:37;7.60;99.90
11284;DHT22;5698;47.332;11.180;2022-10-04T01:48:09;7.60;99.90
11284;DHT22;5698;47.332;11.180;2022-10-04T01:50:42;7.60;99.90
11284;DHT22;5698;47.332;11.180;2022-10-04T01:53:14;7.50;99.90
11284;DHT22;5698;47.332;11.180;2022-10-04T01:55:47;7.50;99.90
11284;DHT22;5698;47.332;11.180;2022-10-04T01:58:18;7.50;99.90
11284;DHT22;5698;47.332;11.180;2022-10-04T02:00:49;7.60;99.90
11284;DHT22;5698;47.332;11.180;2022-10-04T02:03:20;7.60;99.90
11284;DHT22;5698;47.332;11.180;2022-10-04T02:05:51;7.60;99.90
11284;DHT22;5698;47.332;11.180;2022-10-04T02:08:25;7.50;99.90
11284;DHT22;5698;47.332;11.180;2022-10-04T02:10:53;7.60;99.90
11284;DHT22;5698;47.332;11.180;2022-10-04T02:13:23;7.70;99.90
11284;DHT22;5698;47.332;11.180;2022-10-04T02:15:54;7.60;99.90
11284;DHT22;5698;47.332;11.180;2022-10-04T02:18:22;7.60;99.90
11284;DHT22;5698;47.332;11.180;2022-10-04T02:20:50;7.60;99.90
11284;DHT22;5698;47.332;11.180;2022-10-04T02:23:20;7.70;99.90
11284;DHT22;5698;47.332;11.180;2022-10-04T02:25:50;7.60;99.90
11284;DHT22;5698;47.332;11.180;2022-10-04T02:28:17;7.60;99.90
11284;DHT22;5698;47.332;11.180;2022-10-04T02:30:47;7.60;99.90
11284;DHT22;5698;47.332;11.180;2022-10-04T02:33:28;7.60;99.90
11284;DHT22;5698;47.332;11.180;2022-10-04T02:35:56;7.60;99.90
11284;DHT22;5698;47.332;11.180;2022-10-04T02:38:28;7.60;99.90
11284;DHT22;5698;47.332;11.180;2022-10-04T02:41:02;7.60;99.90
11284;DHT22;5698;47.332;11.180;2022-10-04T02:43:35;7.50;99.90
11284;DHT22;5698;47.332;11.180;2022-10-04T02:46:08;7.50;99.90
11284;DHT22;5698;47.332;11.180;2022-10-04T02:48:42;7.50;99.90
11284;DHT22;5698;47.332;11.180;2022-10-04T02:51:20;7.50;99.90
11284;DHT22;5698;47.332;11.180;2022-10-04T02:53:55;7.50;99.90
11284;DHT22;5698;47.332;11.180;2022-10-04T02:56:27;7.50;99.90
11284;DHT22;5698;47.332;11.180;2022-10-04T02:59:00;7.50;99.90
11284;DHT22;5698;47.332;11.180;2022-10-04T03:01:39;7.50;99.90
11284;DHT22;5698;47.332;11.180;2022-10-04T03:04:10;7.50;99.90
11284;DHT22;5698;47.332;11.180;2022-10-04T03:06:38;7.50;99.90
11284;DHT22;5698;47.332;11.180;2022-10-04T03:09:06;7.60;99.90
11284;DHT22;5698;47.332;11.180;2022-10-04T03:11:36;7.50;99.90
11284;DHT22;5698;47.332;11.180;2022-10-04T03:14:07;7.50;99.90
11284;DHT22;5698;47.332;11.180;2022-10-04T03:16:36;7.50;99.90
11284;DHT22;5698;47.332;11.180;2022-10-04T03:19:06;7.50;99.90
11284;DHT22;5698;47.332;11.180;2022-10-04T03:21:34;7.50;99.90
11284;DHT22;5698;47.332;11.180;2022-10-04T03:24:03;7.50;99.90
11284;DHT22;5698;47.332;11.180;2022-10-04T03:26:37;7.50;99.90
11284;DHT22;5698;47.332;11.180;2022-10-04T03:29:07;7.40;99.90
11284;DHT22;5698;47.332;11.180;2022-10-04T03:31:39;7.50;99.90
11284;DHT22;5698;47.332;11.180;2022-10-04T03:34:12;7.50;99.90
11284;DHT22;5698;47.332;11.180;2022-10-04T03:36:40;7.50;99.90
11284;DHT22;5698;47.332;11.180;2022-10-04T03:39:09;7.50;99.90
11284;DHT22;5698;47.332;11.180;2022-10-04T03:41:39;7.60;99.90
11284;DHT22;5698;47.332;11.180;2022-10-04T03:44:14;7.50;99.90
11284;DHT22;5698;47.332;11.180;2022-10-04T03:46:42;7.60;99.90
11284;DHT22;5698;47.332;11.180;2022-10-04T03:49:11;7.50;99.90
11284;DHT22;5698;47.332;11.180;2022-10-04T03:51:43;7.50;99.90
11284;DHT22;5698;47.332;11.180;2022-10-04T03:54:15;7.50;99.90
11284;DHT22;5698;47.332;11.180;2022-10-04T03:56:45;7.50;99.90
11284;DHT22;5698;47.332;11.180;2022-10-04T03:59:15;7.50;99.90
11284;DHT22;5698;47.332;11.180;2022-10-04T04:01:45;7.40;99.90
11284;DHT22;5698;47.332;11.180;2022-10-04T04:04:18;7.40;99.90
11284;DHT22;5698;47.332;11.180;2022-10-04T04:06:51;7.40;99.90
11284;DHT22;5698;47.332;11.180;2022-10-04T04:09:24;7.40;99.90
11284;DHT22;5698;47.332;11.180;2022-10-04T04:11:56;7.40;99.90
11284;DHT22;5698;47.332;11.180;2022-10-04T04:14:25;7.50;99.90
11284;DHT22;5698;47.332;11.180;2022-10-04T04:17:15;7.50;99.90
11284;DHT22;5698;47.332;11.180;2022-10-04T04:19:42;7.50;99.90
11284;DHT22;5698;47.332;11.180;2022-10-04T04:22:14;7.50;99.90
11284;DHT22;5698;47.332;11.180;2022-10-04T04:24:43;7.40;99.90
11284;DHT22;5698;47.332;11.180;2022-10-04T04:27:15;7.40;99.90
11284;DHT22;5698;47.332;11.180;2022-10-04T04:29:45;7.30;99.90
11284;DHT22;5698;47.332;11.180;2022-10-04T04:32:16;7.30;99.90
11284;DHT22;5698;47.332;11.180;2022-10-04T04:34:49;7.30;99.90
11284;DHT22;5698;47.332;11.180;2022-10-04T04:37:18;7.20;99.90
11284;DHT22;5698;47.332;11.180;2022-10-04T04:39:48;7.20;99.90
11284;DHT22;5698;47.332;11.180;2022-10-04T04:42:26;7.20;99.90
11284;DHT22;5698;47.332;11.180;2022-10-04T04:44:55;7.20;99.90
11284;DHT22;5698;47.332;11.180;2022-10-04T04:47:29;7.20;99.90
11284;DHT22;5698;47.332;11.180;2022-10-04T04:50:04;7.20;99.90
11284;DHT22;5698;47.332;11.180;2022-10-04T04:52:32;7.20;99.90
11284;DHT22;5698;47.332;11.180;2022-10-04T04:55:00;7.20;99.90
11284;DHT22;5698;47.332;11.180;2022-10-04T04:57:29;7.20;99.90
11284;DHT22;5698;47.332;11.180;2022-10-04T04:59:59;7.20;99.90
11284;DHT22;5698;47.332;11.180;2022-10-04T05:02:29;7.20;99.90
11284;DHT22;5698;47.332;11.180;2022-10-04T05:05:15;7.20;99.90
11284;DHT22;5698;47.332;11.180;2022-10-04T05:07:42;7.30;99.90
11284;DHT22;5698;47.332;11.180;2022-10-04T05:10:20;7.30;99.90
11284;DHT22;5698;47.332;11.180;2022-10-04T05:12:49;7.30;99.90
11284;DHT22;5698;47.332;11.180;2022-10-04T05:15:17;7.20;99.90
11284;DHT22;5698;47.332;11.180;2022-10-04T05:17:44;7.20;99.90
11284;DHT22;5698;47.332;11.180;2022-10-04T05:20:12;7.10;99.90
11284;DHT22;5698;47.332;11.180;2022-10-04T05:22:44;7.10;99.90
11284;DHT22;5698;47.332;11.180;2022-10-04T05:25:16;7.10;99.90
11284;DHT22;5698;47.332;11.180;2022-10-04T05:27:49;7.10;99.90
11284;DHT22;5698;47.332;11.180;2022-10-04T05:30:28;7.10;99.90
11284;DHT22;5698;47.332;11.180;2022-10-04T05:33:00;7.00;99.90
11284;DHT22;5698;47.332;11.180;2022-10-04T05:35:28;7.00;99.90
11284;DHT22;5698;47.332;11.180;2022-10-04T05:38:07;7.00;99.90
11284;DHT22;5698;47.332;11.180;2022-10-04T05:40:44;7.10;99.90
11284;DHT22;5698;47.332;11.180;2022-10-04T05:43:29;7.10;99.90
11284;DHT22;5698;47.332;11.180;2022-10-04T05:46:17;7.00;99.90
11284;DHT22;5698;47.332;11.180;2022-10-04T05:48:47;7.00;99.90
11284;DHT22;5698;47.332;11.180;2022-10-04T05:51:18;7.00;99.90
11284;DHT22;5698;47.332;11.180;2022-10-04T05:53:46;7.00;99.90
11284;DHT22;5698;47.332;11.180;2022-10-04T05:56:37;7.00;99.90
11284;DHT22;5698;47.332;11.180;2022-10-04T05:59:19;7.00;99.90
11284;DHT22;5698;47.332;11.180;2022-10-04T06:01:55;7.00;99.90
11284;DHT22;5698;47.332;11.180;2022-10-04T06:04:39;7.00;99.90
11284;DHT22;5698;47.332;11.180;2022-10-04T06:07:18;7.10;99.90
11284;DHT22;5698;47.332;11.180;2022-10-04T06:09:56;7.10;99.90
11284;DHT22;5698;47.332;11.180;2022-10-04T06:12:39;7.10;99.90
11284;DHT22;5698;47.332;11.180;2022-10-04T06:21:26;7.00;99.90
11284;DHT22;5698;47.332;11.180;2022-10-04T06:23:57;7.00;99.90
11284;DHT22;5698;47.332;11.180;2022-10-04T06:26:29;7.10;99.90
11284;DHT22;5698;47.332;11.180;2022-10-04T06:29:01;7.10;99.90
11284;DHT22;5698;47.332;11.180;2022-10-04T06:38:16;7.30;99.90
11284;DHT22;5698;47.332;11.180;2022-10-04T06:46:45;7.50;99.90
11284;DHT22;5698;47.332;11.180;2022-10-04T06:49:41;7.70;99.90
11284;DHT22;5698;47.332;11.180;2022-10-04T06:52:25;7.90;99.90
11284;DHT22;5698;47.332;11.180;2022-10-04T06:58:04;8.20;99.90
11284;DHT22;5698;47.332;11.180;2022-10-04T07:00:40;8.50;99.90
11284;DHT22;5698;47.332;11.180;2022-10-04T07:03:14;8.70;99.90
11284;DHT22;5698;47.332;11.180;2022-10-04T07:05:45;8.90;99.90
11284;DHT22;5698;47.332;11.180;2022-10-04T07:08:18;9.00;99.90
11284;DHT22;5698;47.332;11.180;2022-10-04T07:11:00;9.10;99.90
11284;DHT22;5698;47.332;11.180;2022-10-04T07:13:42;9.20;99.90
11284;DHT22;5698;47.332;11.180;2022-10-04T07:16:24;9.40;99.90
11284;DHT22;5698;47.332;11.180;2022-10-04T07:18:58;9.40;99.90
11284;DHT22;5698;47.332;11.180;2022-10-04T07:21:34;9.30;99.90
11284;DHT22;5698;47.332;11.180;2022-10-04T07:24:10;9.30;99.90
11284;DHT22;5698;47.332;11.180;2022-10-04T07:26:43;9.20;99.90
11284;DHT22;5698;47.332;11.180;2022-10-04T07:29:14;9.30;99.90
11284;DHT22;5698;47.332;11.180;2022-10-04T07:31:50;9.50;99.90
11284;DHT22;5698;47.332;11.180;2022-10-04T07:34:22;9.60;99.90
11284;DHT22;5698;47.332;11.180;2022-10-04T07:36:52;9.70;99.90
11284;DHT22;5698;47.332;11.180;2022-10-04T07:39:25;9.70;99.90
11284;DHT22;5698;47.332;11.180;2022-10-04T07:41:55;9.70;99.90
11284;DHT22;5698;47.332;11.180;2022-10-04T07:44:32;9.60;99.90
11284;DHT22;5698;47.332;11.180;2022-10-04T07:47:04;9.50;99.90
11284;DHT22;5698;47.332;11.180;2022-10-04T07:49:37;9.40;99.90
11284;DHT22;5698;47.332;11.180;2022-10-04T07:52:18;9.50;99.90
11284;DHT22;5698;47.332;11.180;2022-10-04T07:54:52;9.60;99.90
11284;DHT22;5698;47.332;11.180;2022-10-04T07:57:29;9.70;99.90
11284;DHT22;5698;47.332;11.180;2022-10-04T08:00:03;10.00;99.90
11284;DHT22;5698;47.332;11.180;2022-10-04T08:02:41;10.00;99.90
11284;DHT22;5698;47.332;11.180;2022-10-04T08:05:18;10.10;99.90
11284;DHT22;5698;47.332;11.180;2022-10-04T08:08:01;10.20;99.90
11284;DHT22;5698;47.332;11.180;2022-10-04T08:10:36;10.40;99.90
11284;DHT22;5698;47.332;11.180;2022-10-04T08:13:12;10.50;99.90
11284;DHT22;5698;47.332;11.180;2022-10-04T08:15:42;10.60;99.90
11284;DHT22;5698;47.332;11.180;2022-10-04T08:18:20;10.60;99.90
11284;DHT22;5698;47.332;11.180;2022-10-04T08:20:55;10.70;99.90
11284;DHT22;5698;47.332;11.180;2022-10-04T08:23:37;10.90;99.90
11284;DHT22;5698;47.332;11.180;2022-10-04T08:26:24;11.00;99.90
11284;DHT22;5698;47.332;11.180;2022-10-04T08:29:02;11.10;99.90
11284;DHT22;5698;47.332;11.180;2022-10-04T08:32:00;11.20;99.90
11284;DHT22;5698;47.332;11.180;2022-10-04T08:34:41;11.30;99.90
11284;DHT22;5698;47.332;11.180;2022-10-04T08:37:19;11.30;99.90
11284;DHT22;5698;47.332;11.180;2022-10-04T08:43:15;11.10;99.90
11284;DHT22;5698;47.332;11.180;2022-10-04T08:46:25;11.20;99.90
11284;DHT22;5698;47.332;11.180;2022-10-04T08:49:25;11.40;99.90
11284;DHT22;5698;47.332;11.180;2022-10-04T08:52:30;11.40;99.90
11284;DHT22;5698;47.332;11.180;2022-10-04T09:08:01;12.40;99.90
11284;DHT22;5698;47.332;11.180;2022-10-04T09:10:47;12.60;99.90
11284;DHT22;5698;47.332;11.180;2022-10-04T09:13:35;12.70;99.90
11284;DHT22;5698;47.332;11.180;2022-10-04T09:16:15;12.70;99.90
11284;DHT22;5698;47.332;11.180;2022-10-04T09:19:10;12.70;99.90
11284;DHT22;5698;47.332;11.180;2022-10-04T09:21:59;12.90;99.90
11284;DHT22;5698;47.332;11.180;2022-10-04T09:24:52;13.00;99.90
11284;DHT22;5698;47.332;11.180;2022-10-04T09:27:33;13.10;99.90
11284;DHT22;5698;47.332;11.180;2022-10-04T09:30:18;13.00;99.90
11284;DHT22;5698;47.332;11.180;2022-10-04T09:33:06;13.00;99.90
11284;DHT22;5698;47.332;11.180;2022-10-04T09:39:15;13.10;99.90
11284;DHT22;5698;47.332;11.180;2022-10-04T09:42:14;13.00;99.90
11284;DHT22;5698;47.332;11.180;2022-10-04T09:44:58;13.00;99.90
11284;DHT22;5698;47.332;11.180;2022-10-04T09:47:44;13.10;99.90
11284;DHT22;5698;47.332;11.180;2022-10-04T09:50:41;13.30;99.90
11284;DHT22;5698;47.332;11.180;2022-10-04T09:53:31;13.40;99.90
11284;DHT22;5698;47.332;11.180;2022-10-04T09:56:19;13.60;99.90
11284;DHT22;5698;47.332;11.180;2022-10-04T09:59:26;13.60;99.50
11284;DHT22;5698;47.332;11.180;2022-10-04T10:05:22;13.90;99.10
11284;DHT22;5698;47.332;11.180;2022-10-04T10:07:56;13.90;97.70
11284;DHT22;5698;47.332;11.180;2022-10-04T10:10:31;14.00;98.40
11284;DHT22;5698;47.332;11.180;2022-10-04T10:13:25;14.10;97.60
11284;DHT22;5698;47.332;11.180;2022-10-04T10:16:26;14.10;98.00
11284;DHT22;5698;47.332;11.180;2022-10-04T10:19:05;14.00;98.90
11284;DHT22;5698;47.332;11.180;2022-10-04T10:21:56;14.10;99.30
11284;DHT22;5698;47.332;11.180;2022-10-04T10:24:58;14.10;98.90
11284;DHT22;5698;47.332;11.180;2022-10-04T10:27:50;14.20;99.70
11284;DHT22;5698;47.332;11.180;2022-10-04T10:30:24;14.20;99.30
11284;DHT22;5698;47.332;11.180;2022-10-04T10:33:25;14.20;98.90
11284;DHT22;5698;47.332;11.180;2022-10-04T10:36:25;14.20;98.80
11284;DHT22;5698;47.332;11.180;2022-10-04T10:39:20;14.10;99.10
11284;DHT22;5698;47.332;11.180;2022-10-04T10:42:08;14.00;98.40
11284;DHT22;5698;47.332;11.180;2022-10-04T10:45:05;13.90;97.80
11284;DHT22;5698;47.332;11.180;2022-10-04T10:47:44;14.00;98.40
11284;DHT22;5698;47.332;11.180;2022-10-04T10:50:27;14.10;97.20
11284;DHT22;5698;47.332;11.180;2022-10-04T10:53:11;14.20;97.80
11284;DHT22;5698;47.332;11.180;2022-10-04T10:56:05;14.30;96.40
11284;DHT22;5698;47.332;11.180;2022-10-04T10:58:52;14.20;96.10
11284;DHT22;5698;47.332;11.180;2022-10-04T11:01:52;14.30;95.80
11284;DHT22;5698;47.332;11.180;2022-10-04T11:04:47;14.40;96.70
11284;DHT22;5698;47.332;11.180;2022-10-04T11:07:41;14.50;96.20
11284;DHT22;5698;47.332;11.180;2022-10-04T11:10:32;14.40;94.60
11284;DHT22;5698;47.332;11.180;2022-10-04T11:16:28;14.60;95.00
11284;DHT22;5698;47.332;11.180;2022-10-04T11:19:38;14.90;93.30
11284;DHT22;5698;47.332;11.180;2022-10-04T11:22:54;15.30;92.30
11284;DHT22;5698;47.332;11.180;2022-10-04T11:25:49;15.40;94.10
11284;DHT22;5698;47.332;11.180;2022-10-04T11:28:26;15.60;95.60
11284;DHT22;5698;47.332;11.180;2022-10-04T11:31:30;15.80;94.00
11284;DHT22;5698;47.332;11.180;2022-10-04T11:34:31;16.00;94.20
11284;DHT22;5698;47.332;11.180;2022-10-04T11:37:07;16.50;94.60
11284;DHT22;5698;47.332;11.180;2022-10-04T11:40:03;17.00;93.40
11284;DHT22;5698;47.332;11.180;2022-10-04T11:42:55;17.60;93.30
11284;DHT22;5698;47.332;11.180;2022-10-04T11:46:01;17.60;90.50
11284;DHT22;5698;47.332;11.180;2022-10-04T11:48:42;17.60;91.20
11284;DHT22;5698;47.332;11.180;2022-10-04T11:51:46;17.70;92.00
11284;DHT22;5698;47.332;11.180;2022-10-04T11:54:48;17.90;91.70
11284;DHT22;5698;47.332;11.180;2022-10-04T11:57:30;17.80;90.60
11284;DHT22;5698;47.332;11.180;2022-10-04T12:00:06;18.10;91.30
11284;DHT22;5698;47.332;11.180;2022-10-04T12:03:00;18.30;90.90
11284;DHT22;5698;47.332;11.180;2022-10-04T12:05:45;18.50;91.10
11284;DHT22;5698;47.332;11.180;2022-10-04T12:08:31;18.60;90.30
11284;DHT22;5698;47.332;11.180;2022-10-04T12:11:34;19.10;88.80
11284;DHT22;5698;47.332;11.180;2022-10-04T12:14:33;19.50;91.40
11284;DHT22;5698;47.332;11.180;2022-10-04T12:17:25;20.00;91.20
11284;DHT22;5698;47.332;11.180;2022-10-04T12:20:13;20.30;89.10
11284;DHT22;5698;47.332;11.180;2022-10-04T12:23:00;20.80;87.40
11284;DHT22;5698;47.332;11.180;2022-10-04T12:26:01;21.10;85.30
11284;DHT22;5698;47.332;11.180;2022-10-04T12:28:48;21.20;87.50
11284;DHT22;5698;47.332;11.180;2022-10-04T12:31:21;21.40;86.20
11284;DHT22;5698;47.332;11.180;2022-10-04T12:33:58;21.30;85.80
11284;DHT22;5698;47.332;11.180;2022-10-04T12:36:40;21.60;85.80
11284;DHT22;5698;47.332;11.180;2022-10-04T12:39:24;21.70;84.10
11284;DHT22;5698;47.332;11.180;2022-10-04T12:42:01;21.60;86.60
11284;DHT22;5698;47.332;11.180;2022-10-04T12:44:43;21.50;88.30
11284;DHT22;5698;47.332;11.180;2022-10-04T12:47:36;21.70;85.90
11284;DHT22;5698;47.332;11.180;2022-10-04T12:50:13;21.70;82.70
11284;DHT22;5698;47.332;11.180;2022-10-04T12:52:50;21.80;85.40
11284;DHT22;5698;47.332;11.180;2022-10-04T12:55:37;22.10;83.90
11284;DHT22;5698;47.332;11.180;2022-10-04T12:58:08;22.30;83.50
11284;DHT22;5698;47.332;11.180;2022-10-04T13:00:42;22.50;82.50
11284;DHT22;5698;47.332;11.180;2022-10-04T13:03:22;22.50;84.90
11284;DHT22;5698;47.332;11.180;2022-10-04T13:06:03;22.60;85.80
11284;DHT22;5698;47.332;11.180;2022-10-04T13:08:42;22.00;85.60
11284;DHT22;5698;47.332;11.180;2022-10-04T13:11:37;22.00;87.30
11284;DHT22;5698;47.332;11.180;2022-10-04T13:17:17;22.20;87.10
11284;DHT22;5698;47.332;11.180;2022-10-04T13:19:52;22.10;88.30
11284;DHT22;5698;47.332;11.180;2022-10-04T13:22:33;22.00;87.50
11284;DHT22;5698;47.332;11.180;2022-10-04T13:25:21;21.80;87.70
11284;DHT22;5698;47.332;11.180;2022-10-04T13:27:53;21.90;89.40
11284;DHT22;5698;47.332;11.180;2022-10-04T13:30:25;21.30;87.90
11284;DHT22;5698;47.332;11.180;2022-10-04T13:33:10;20.50;86.60
11284;DHT22;5698;47.332;11.180;2022-10-04T13:35:46;20.00;90.40
11284;DHT22;5698;47.332;11.180;2022-10-04T13:38:35;20.20;90.70
11284;DHT22;5698;47.332;11.180;2022-10-04T13:41:15;20.00;90.90
11284;DHT22;5698;47.332;11.180;2022-10-04T13:44:00;19.90;91.50
11284;DHT22;5698;47.332;11.180;2022-10-04T13:46:36;19.80;90.80
11284;DHT22;5698;47.332;11.180;2022-10-04T13:49:24;19.70;91.40
11284;DHT22;5698;47.332;11.180;2022-10-04T13:52:04;19.10;90.60
11284;DHT22;5698;47.332;11.180;2022-10-04T13:55:00;18.40;92.10
11284;DHT22;5698;47.332;11.180;2022-10-04T13:57:59;18.10;92.90
11284;DHT22;5698;47.332;11.180;2022-10-04T14:00:44;17.70;93.70
11284;DHT22;5698;47.332;11.180;2022-10-04T14:03:26;17.40;95.40
11284;DHT22;5698;47.332;11.180;2022-10-04T14:09:20;17.60;95.60
11284;DHT22;5698;47.332;11.180;2022-10-04T14:12:06;17.40;95.30
11284;DHT22;5698;47.332;11.180;2022-10-04T14:14:59;17.20;94.50
11284;DHT22;5698;47.332;11.180;2022-10-04T14:17:44;17.00;95.30
11284;DHT22;5698;47.332;11.180;2022-10-04T14:20:54;16.90;96.10
11284;DHT22;5698;47.332;11.180;2022-10-04T14:26:54;16.40;95.20
11284;DHT22;5698;47.332;11.180;2022-10-04T14:29:44;16.10;96.40
11284;DHT22;5698;47.332;11.180;2022-10-04T14:32:55;15.90;97.80
11284;DHT22;5698;47.332;11.180;2022-10-04T14:35:27;15.60;98.50
11284;DHT22;5698;47.332;11.180;2022-10-04T14:41:12;15.20;99.50
11284;DHT22;5698;47.332;11.180;2022-10-04T14:46:59;14.80;99.90
11284;DHT22;5698;47.332;11.180;2022-10-04T14:49:47;14.60;99.90
11284;DHT22;5698;47.332;11.180;2022-10-04T14:52:30;14.40;99.90
11284;DHT22;5698;47.332;11.180;2022-10-04T14:55:18;14.30;99.90
11284;DHT22;5698;47.332;11.180;2022-10-04T14:57:57;14.10;99.90
11284;DHT22;5698;47.332;11.180;2022-10-04T15:00:29;14.00;99.90
11284;DHT22;5698;47.332;11.180;2022-10-04T15:03:23;13.80;99.90
11284;DHT22;5698;47.332;11.180;2022-10-04T15:06:19;13.70;99.90
11284;DHT22;5698;47.332;11.180;2022-10-04T15:09:24;13.60;99.90
11284;DHT22;5698;47.332;11.180;2022-10-04T15:11:57;13.50;99.90
11284;DHT22;5698;47.332;11.180;2022-10-04T15:14:35;13.40;99.90
11284;DHT22;5698;47.332;11.180;2022-10-04T15:17:07;13.30;99.90
11284;DHT22;5698;47.332;11.180;2022-10-04T15:19:54;13.30;99.90
11284;DHT22;5698;47.332;11.180;2022-10-04T15:22:27;13.20;99.90
11284;DHT22;5698;47.332;11.180;2022-10-04T15:24:55;13.10;99.90
11284;DHT22;5698;47.332;11.180;2022-10-04T15:30:31;12.90;99.90
11284;DHT22;5698;47.332;11.180;2022-10-04T15:36:30;12.80;99.90
11284;DHT22;5698;47.332;11.180;2022-10-04T15:39:06;12.70;99.90
11284;DHT22;5698;47.332;11.180;2022-10-04T15:41:41;12.60;99.90
11284;DHT22;5698;47.332;11.180;2022-10-04T15:47:14;12.50;99.90
11284;DHT22;5698;47.332;11.180;2022-10-04T15:49:59;12.40;99.90
11284;DHT22;5698;47.332;11.180;2022-10-04T15:53:08;12.30;99.90
11284;DHT22;5698;47.332;11.180;2022-10-04T15:56:00;12.20;99.90
11284;DHT22;5698;47.332;11.180;2022-10-04T15:58:40;12.10;99.90
11284;DHT22;5698;47.332;11.180;2022-10-04T16:01:23;12.00;99.90
11284;DHT22;5698;47.332;11.180;2022-10-04T16:04:15;11.90;99.90
11284;DHT22;5698;47.332;11.180;2022-10-04T16:06:50;11.80;99.90
11284;DHT22;5698;47.332;11.180;2022-10-04T16:09:25;11.70;99.90
11284;DHT22;5698;47.332;11.180;2022-10-04T16:14:53;11.60;99.90
11284;DHT22;5698;47.332;11.180;2022-10-04T16:17:47;11.50;99.90
11284;DHT22;5698;47.332;11.180;2022-10-04T16:20:40;11.40;99.90
11284;DHT22;5698;47.332;11.180;2022-10-04T16:23:27;11.40;99.90
11284;DHT22;5698;47.332;11.180;2022-10-04T16:25:56;11.50;99.90
11284;DHT22;5698;47.332;11.180;2022-10-04T16:31:53;11.40;99.90
11284;DHT22;5698;47.332;11.180;2022-10-04T16:34:38;11.30;99.90
11284;DHT22;5698;47.332;11.180;2022-10-04T16:37:29;11.20;99.90
11284;DHT22;5698;47.332;11.180;2022-10-04T16:40:00;11.20;99.90
11284;DHT22;5698;47.332;11.180;2022-10-04T16:42:46;11.10;99.90
11284;DHT22;5698;47.332;11.180;2022-10-04T16:45:41;11.00;99.90
11284;DHT22;5698;47.332;11.180;2022-10-04T16:48:22;10.80;99.90
11284;DHT22;5698;47.332;11.180;2022-10-04T16:51:16;10.80;99.90
11284;DHT22;5698;47.332;11.180;2022-10-04T16:53:49;10.70;99.90
11284;DHT22;5698;47.332;11.180;2022-10-04T16:56:20;10.70;99.90
11284;DHT22;5698;47.332;11.180;2022-10-04T16:58:55;10.50;99.90
11284;DHT22;5698;47.332;11.180;2022-10-04T17:02:12;10.50;99.90
11284;DHT22;5698;47.332;11.180;2022-10-04T17:05:02;10.40;99.90
11284;DHT22;5698;47.332;11.180;2022-10-04T17:08:00;10.40;99.90
11284;DHT22;5698;47.332;11.180;2022-10-04T17:10:34;10.20;99.90
11284;DHT22;5698;47.332;11.180;2022-10-04T17:13:17;10.10;99.90
11284;DHT22;5698;47.332;11.180;2022-10-04T17:15:48;10.00;99.90
11284;DHT22;5698;47.332;11.180;2022-10-04T17:18:30;9.90;99.90
11284;DHT22;5698;47.332;11.180;2022-10-04T17:21:05;9.90;99.90
11284;DHT22;5698;47.332;11.180;2022-10-04T17:23:53;9.80;99.90
11284;DHT22;5698;47.332;11.180;2022-10-04T17:26:40;9.70;99.90
11284;DHT22;5698;47.332;11.180;2022-10-04T17:29:25;9.60;99.90
11284;DHT22;5698;47.332;11.180;2022-10-04T17:31:59;9.60;99.90
11284;DHT22;5698;47.332;11.180;2022-10-04T17:34:38;9.50;99.90
11284;DHT22;5698;47.332;11.180;2022-10-04T17:37:17;9.50;99.90
11284;DHT22;5698;47.332;11.180;2022-10-04T17:39:48;9.40;99.90
11284;DHT22;5698;47.332;11.180;2022-10-04T17:42:30;9.40;99.90
11284;DHT22;5698;47.332;11.180;2022-10-04T17:47:59;9.40;99.90
11284;DHT22;5698;47.332;11.180;2022-10-04T17:50:53;9.30;99.90
11284;DHT22;5698;47.332;11.180;2022-10-04T17:53:44;9.30;99.90
11284;DHT22;5698;47.332;11.180;2022-10-04T17:56:33;9.20;99.90
11284;DHT22;5698;47.332;11.180;2022-10-04T17:59:07;9.20;99.90
11284;DHT22;5698;47.332;11.180;2022-10-04T18:01:41;9.10;99.90
11284;DHT22;5698;47.332;11.180;2022-10-04T18:04:15;9.00;99.90
11284;DHT22;5698;47.332;11.180;2022-10-04T18:06:49;8.90;99.90
11284;DHT22;5698;47.332;11.180;2022-10-04T18:09:27;8.90;99.90
11284;DHT22;5698;47.332;11.180;2022-10-04T18:11:57;8.80;99.90
11284;DHT22;5698;47.332;11.180;2022-10-04T18:14:46;8.70;99.90
11284;DHT22;5698;47.332;11.180;2022-10-04T18:17:25;8.80;99.90
11284;DHT22;5698;47.332;11.180;2022-10-04T18:20:00;8.80;99.90
11284;DHT22;5698;47.332;11.180;2022-10-04T18:22:41;8.70;99.90
11284;DHT22;5698;47.332;11.180;2022-10-04T18:25:14;8.70;99.90